Time;durP1;ratioP1;P1;durP2;ratioP2;P2;SDS_P1;SDS_P2;PMS_P1;PMS_P2;Temp;Humidity;BMP_temperature;BMP_pressure;BME280_temperature;BME280_humidity;BME280_pressure;Samples;Min_cycle;Max_cycle;Signal;HPM_P1;HPM_P2
2022/10/28 00:00:50;;;;;;;2.07;1.97;;;14.80;99.90;;;;;;5109087;28;20666;-81
2022/10/28 00:03:18;;;;;;;1.43;1.33;;;14.70;99.90;;;;;;5109045;28;20707;-82
2022/10/28 00:05:46;;;;;;;1.23;1.00;;;14.70;99.90;;;;;;5108597;28;20620;-81
2022/10/28 00:08:13;;;;;;;1.40;1.30;;;14.60;99.90;;;;;;5107566;28;21220;-81
2022/10/28 00:10:39;;;;;;;9.53;1.30;;;14.70;99.90;;;;;;5108455;28;21231;-81
2022/10/28 00:13:07;;;;;;;2.97;2.00;;;;;;;;;;5108198;28;20620;-82
2022/10/28 00:15:34;;;;;;;1.20;1.10;;;14.60;99.90;;;;;;5108620;28;20700;-82
2022/10/28 00:18:01;;;;;;;1.80;1.70;;;14.60;99.90;;;;;;5107619;28;20650;-82
2022/10/28 00:20:30;;;;;;;3.80;2.10;;;14.70;99.90;;;;;;5108850;28;20659;-81
2022/10/28 00:22:57;;;;;;;1.93;1.70;;;14.80;99.90;;;;;;5108776;28;20726;-82
2022/10/28 00:25:24;;;;;;;1.83;1.20;;;14.70;99.90;;;;;;5108688;28;20615;-82
2022/10/28 00:27:51;;;;;;;1.63;1.27;;;;;;;;;;5107542;28;20619;-82
2022/10/28 00:30:18;;;;;;;1.70;1.57;;;14.60;99.90;;;;;;5108306;28;20614;-81
2022/10/28 00:32:45;;;;;;;3.87;1.97;;;14.50;99.90;;;;;;5108566;28;20615;-82
2022/10/28 00:35:12;;;;;;;6.40;2.00;;;14.40;99.90;;;;;;5108644;28;20710;-82
2022/10/28 00:37:40;;;;;;;3.33;1.20;;;14.40;99.90;;;;;;5107639;28;20620;-82
2022/10/28 00:40:08;;;;;;;1.40;1.30;;;14.40;99.90;;;;;;5108011;28;20683;-82
2022/10/28 00:42:35;;;;;;;1.73;1.30;;;14.40;99.90;;;;;;5108259;28;20626;-82
2022/10/28 00:45:02;;;;;;;7.40;2.80;;;14.40;99.90;;;;;;5107046;28;20644;-82
2022/10/28 00:47:50;;;;;;;1.40;1.30;;;14.50;99.90;;;;;;5108167;28;20623;-83
2022/10/28 00:50:37;;;;;;;1.70;1.43;;;14.50;99.90;;;;;;5108356;28;20616;-82
2022/10/28 00:53:09;;;;;;;1.60;1.47;;;14.50;99.90;;;;;;5108645;28;20716;-82
2022/10/28 00:55:36;;;;;;;2.50;2.03;;;14.60;99.90;;;;;;5108357;28;20630;-81
2022/10/28 00:58:05;;;;;;;3.20;1.83;;;14.60;99.90;;;;;;5107747;28;20707;-82
2022/10/28 01:00:33;;;;;;;1.17;1.17;;;14.70;99.90;;;;;;5087420;28;21323;-81
2022/10/28 01:02:59;;;;;;;2.20;2.00;;;14.80;99.90;;;;;;5087360;28;20634;-82
2022/10/28 01:05:29;;;;;;;2.40;1.70;;;14.60;99.90;;;;;;5086952;28;20701;-82
2022/10/28 01:08:00;;;;;;;1.87;1.27;;;14.60;99.90;;;;;;5087604;28;20654;-82
2022/10/28 01:10:45;;;;;;;1.90;1.57;;;14.60;99.90;;;;;;5087953;28;20620;-82
2022/10/28 01:13:26;;;;;;;2.77;1.73;;;14.70;99.90;;;;;;5087987;28;20608;-82
2022/10/28 01:16:04;;;;;;;1.20;1.20;;;14.70;99.90;;;;;;5089643;28;20623;-82
2022/10/28 01:18:41;;;;;;;1.20;1.10;;;14.70;99.90;;;;;;5109788;28;20994;-81
2022/10/28 01:21:45;;;;;;;2.80;1.73;;;14.60;99.90;;;;;;5111954;28;20647;-82
2022/10/28 01:24:26;;;;;;;2.10;1.63;;;14.60;99.90;;;;;;5069545;28;21041;-82
2022/10/28 01:27:33;;;;;;;1.53;1.43;;;14.70;99.90;;;;;;5111622;28;20634;-82
2022/10/28 01:30:08;;;;;;;1.57;1.47;;;14.60;99.90;;;;;;5111434;28;20619;-81
2022/10/28 01:32:48;;;;;;;2.07;1.90;;;14.60;99.90;;;;;;5112534;28;20714;-82
2022/10/28 01:35:22;;;;;;;2.07;1.93;;;14.60;99.90;;;;;;5091151;28;20970;-82
2022/10/28 01:38:01;;;;;;;1.87;1.67;;;14.50;99.90;;;;;;5091497;28;20693;-82
2022/10/28 01:40:33;;;;;;;2.40;2.20;;;14.50;99.90;;;;;;5090546;28;20930;-83
2022/10/28 01:43:10;;;;;;;2.77;2.50;;;14.50;99.90;;;;;;5104067;28;20719;-82
2022/10/28 01:45:44;;;;;;;5.40;1.80;;;14.50;99.90;;;;;;5109875;28;20952;-82
2022/10/28 01:48:18;;;;;;;3.00;1.73;;;14.50;99.90;;;;;;5111344;28;20621;-82
2022/10/28 01:50:51;;;;;;;1.70;1.60;;;14.50;99.90;;;;;;5110575;28;20623;-82
2022/10/28 01:53:22;;;;;;;3.20;2.00;;;14.50;99.90;;;;;;5111360;28;21181;-81
2022/10/28 01:55:53;;;;;;;1.93;1.73;;;14.50;99.90;;;;;;5111103;28;20643;-81
2022/10/28 01:58:26;;;;;;;2.40;1.80;;;14.50;99.90;;;;;;5110717;28;20689;-81
2022/10/28 02:00:54;;;;;;;2.77;1.63;;;14.30;99.90;;;;;;5110645;28;21145;-82
2022/10/28 02:03:23;;;;;;;1.60;1.30;;;14.40;99.90;;;;;;5111130;28;20608;-82
2022/10/28 02:05:53;;;;;;;1.67;1.57;;;14.40;99.90;;;;;;5110647;28;20619;-82
2022/10/28 02:08:52;;;;;;;2.20;2.00;;;14.40;99.90;;;;;;5110624;28;20654;-81
2022/10/28 02:11:36;;;;;;;1.20;1.10;;;14.30;99.90;;;;;;5111214;28;20630;-82
2022/10/28 02:14:14;;;;;;;2.30;2.10;;;14.30;99.90;;;;;;5110928;28;20607;-82
2022/10/28 02:16:49;;;;;;;3.77;2.23;;;14.30;99.90;;;;;;5109984;28;20623;-82
2022/10/28 02:19:28;;;;;;;2.20;2.00;;;14.20;99.90;;;;;;5110976;28;20617;-82
2022/10/28 02:22:07;;;;;;;2.53;1.30;;;14.20;99.90;;;;;;5110385;28;20612;-82
2022/10/28 02:24:45;;;;;;;1.40;1.20;;;14.20;99.90;;;;;;5110755;28;21169;-82
2022/10/28 02:27:17;;;;;;;1.63;1.53;;;14.00;99.90;;;;;;5110328;28;20612;-82
2022/10/28 02:29:50;;;;;;;1.53;1.43;;;14.00;99.90;;;;;;5109761;28;20651;-82
2022/10/28 02:32:21;;;;;;;1.50;1.40;;;13.90;99.90;;;;;;5110783;28;20600;-82
2022/10/28 02:34:55;;;;;;;1.70;1.50;;;13.90;99.90;;;;;;5110154;28;20612;-83
2022/10/28 02:37:26;;;;;;;2.13;1.93;;;14.00;99.90;;;;;;5109748;28;21153;-81
2022/10/28 02:39:58;;;;;;;7.60;2.53;;;13.90;99.90;;;;;;5110374;28;20679;-81
2022/10/28 02:42:28;;;;;;;1.90;1.70;;;13.90;99.90;;;;;;5110361;28;20623;-81
2022/10/28 02:44:59;;;;;;;4.00;2.30;;;13.90;99.90;;;;;;5109198;28;20620;-81
2022/10/28 02:47:31;;;;;;;2.20;2.00;;;13.80;99.90;;;;;;5109874;28;20630;-82
2022/10/28 02:50:04;;;;;;;2.77;1.50;;;13.90;99.90;;;;;;5110801;28;20622;-81
2022/10/28 02:52:33;;;;;;;1.60;1.50;;;13.90;99.90;;;;;;5109951;28;21153;-82
2022/10/28 02:55:03;;;;;;;2.17;1.70;;;13.80;99.90;;;;;;5110168;28;20970;-82
2022/10/28 02:57:33;;;;;;;1.33;1.20;;;13.80;99.90;;;;;;5109067;28;20647;-82
2022/10/28 03:00:02;;;;;;;1.73;1.60;;;13.80;99.90;;;;;;5109878;28;20659;-81
2022/10/28 03:02:29;;;;;;;1.60;1.50;;;13.80;99.90;;;;;;5110078;28;21268;-81
2022/10/28 03:04:56;;;;;;;4.57;2.50;;;13.80;99.90;;;;;;5109955;28;20608;-82
2022/10/28 03:07:24;;;;;;;2.97;1.77;;;13.80;99.90;;;;;;5108902;28;20984;-82
2022/10/28 03:09:52;;;;;;;3.60;2.13;;;13.90;99.90;;;;;;5109907;28;20622;-81
2022/10/28 03:12:19;;;;;;;1.47;1.37;;;14.00;99.90;;;;;;5109518;28;21012;-82
2022/10/28 03:14:46;;;;;;;2.30;1.50;;;13.90;99.90;;;;;;5110072;28;20622;-81
2022/10/28 03:17:13;;;;;;;2.90;1.63;;;14.00;99.90;;;;;;5108888;28;20968;-82
2022/10/28 03:19:41;;;;;;;1.53;1.43;;;14.00;99.90;;;;;;5109619;28;20604;-81
2022/10/28 03:22:08;;;;;;;2.27;2.00;;;14.10;99.90;;;;;;5109567;28;20711;-81
2022/10/28 03:24:37;;;;;;;1.83;1.73;;;14.10;99.90;;;;;;5109249;28;20634;-81
2022/10/28 03:27:04;;;;;;;1.50;1.40;;;14.10;99.90;;;;;;5109041;28;21001;-81
2022/10/28 03:29:31;;;;;;;4.37;1.53;;;14.20;99.90;;;;;;5105517;28;21205;-82
2022/10/28 03:31:59;;;;;;;2.70;1.80;;;14.20;99.90;;;;;;5089203;28;20644;-81
2022/10/28 03:34:26;;;;;;;1.63;1.53;;;14.10;99.90;;;;;;5104742;28;20619;-81
2022/10/28 03:36:53;;;;;;;2.70;1.50;;;14.20;99.90;;;;;;5108586;28;20627;-81
2022/10/28 03:39:20;;;;;;;3.40;2.10;;;14.20;99.90;;;;;;5109338;28;20977;-81
2022/10/28 03:41:49;;;;;;;1.63;1.53;;;14.20;99.90;;;;;;5109353;28;21200;-81
2022/10/28 03:44:18;;;;;;;2.93;2.23;;;14.20;99.90;;;;;;5109466;28;21213;-81
2022/10/28 03:46:45;;;;;;;2.37;2.17;;;14.20;99.90;;;;;;5107121;28;20991;-84
2022/10/28 03:49:12;;;;;;;1.50;1.40;;;14.10;99.90;;;;;;5109416;28;20635;-82
2022/10/28 03:51:39;;;;;;;2.50;1.30;;;14.30;99.90;;;;;;5108920;28;20600;-82
2022/10/28 03:54:06;;;;;;;1.50;1.30;;;14.30;99.90;;;;;;5109112;28;20612;-82
2022/10/28 03:56:33;;;;;;;1.67;1.57;;;14.40;99.90;;;;;;5108209;28;20619;-82
2022/10/28 03:59:01;;;;;;;2.23;1.40;;;14.40;99.90;;;;;;5109080;28;21158;-81
2022/10/28 04:01:28;;;;;;;2.27;1.97;;;14.30;99.90;;;;;;5109132;28;20771;-81
2022/10/28 04:03:55;;;;;;;1.70;1.60;;;14.30;99.90;;;;;;5109569;28;20612;-82
2022/10/28 04:06:23;;;;;;;2.50;1.87;;;14.40;99.90;;;;;;5107872;28;21231;-81
2022/10/28 04:08:50;;;;;;;2.50;1.50;;;14.40;99.90;;;;;;5107512;28;21186;-81
2022/10/28 04:11:17;;;;;;;1.93;1.83;;;14.90;99.90;;;;;;5109532;28;20680;-81
2022/10/28 04:13:43;;;;;;;2.13;1.67;;;14.40;99.90;;;;;;5108972;28;20703;-81
2022/10/28 04:16:12;;;;;;;1.63;1.53;;;14.40;99.90;;;;;;5108944;28;20644;-81
2022/10/28 04:18:39;;;;;;;2.03;1.93;;;14.40;99.90;;;;;;5108857;28;20619;-81
2022/10/28 04:21:06;;;;;;;2.70;1.57;;;14.40;99.90;;;;;;5108291;28;20643;-81
2022/10/28 04:23:32;;;;;;;3.07;1.73;;;14.40;99.90;;;;;;5108652;28;21226;-82
2022/10/28 04:25:59;;;;;;;1.47;1.20;;;14.30;99.90;;;;;;5108522;28;21248;-81
2022/10/28 04:28:26;;;;;;;4.87;2.13;;;14.40;99.90;;;;;;5108043;28;20743;-81
2022/10/28 04:30:53;;;;;;;1.70;1.53;;;14.30;99.90;;;;;;5093175;28;20617;-81
2022/10/28 04:33:21;;;;;;;1.53;1.30;;;14.30;99.90;;;;;;5094286;28;20612;-81
2022/10/28 04:35:48;;;;;;;2.17;1.67;;;14.30;99.90;;;;;;5108728;28;20680;-81
2022/10/28 04:38:15;;;;;;;1.37;1.27;;;14.40;99.90;;;;;;5108206;28;20604;-81
2022/10/28 04:40:42;;;;;;;1.93;1.33;;;14.40;99.90;;;;;;5108547;28;20635;-81
2022/10/28 04:43:10;;;;;;;2.07;1.30;;;14.40;99.90;;;;;;5108632;28;20695;-81
2022/10/28 04:45:38;;;;;;;3.50;3.07;;;14.40;99.90;;;;;;5107339;28;20623;-80
2022/10/28 04:48:05;;;;;;;1.50;1.40;;;14.40;99.90;;;;;;5107635;28;21226;-81
2022/10/28 04:50:33;;;;;;;2.33;1.60;;;14.40;99.90;;;;;;5108142;28;21185;-82
2022/10/28 04:53:00;;;;;;;2.30;2.03;;;14.50;99.90;;;;;;5110424;28;20607;-81
2022/10/28 04:55:27;;;;;;;2.95;2.17;;;14.40;99.90;;;;;;5111030;28;20780;-81
2022/10/28 04:57:54;;;;;;;2.10;1.53;;;14.40;99.90;;;;;;5112145;28;20251;-80
2022/10/28 05:00:22;;;;;;;2.07;1.90;;;14.60;99.90;;;;;;5112321;28;20682;-81
2022/10/28 05:02:49;;;;;;;2.23;2.03;;;14.40;99.90;;;;;;5111882;28;20615;-81
2022/10/28 05:05:16;;;;;;;1.90;1.80;;;14.40;99.90;;;;;;5112440;28;20722;-81
2022/10/28 05:07:45;;;;;;;3.27;1.93;;;14.40;99.90;;;;;;5105346;28;20669;-81
2022/10/28 05:10:14;;;;;;;2.47;2.00;;;14.40;99.90;;;;;;5111625;28;20619;-81
2022/10/28 05:12:42;;;;;;;3.13;2.10;;;14.30;99.90;;;;;;5111708;28;20613;-81
2022/10/28 05:15:10;;;;;;;1.80;1.60;;;14.40;99.90;;;;;;5111171;28;20718;-81
2022/10/28 05:17:38;;;;;;;2.70;2.10;;;14.40;99.90;;;;;;5109473;28;20714;-81
2022/10/28 05:20:06;;;;;;;1.80;1.70;;;14.40;99.90;;;;;;5111031;28;20983;-81
2022/10/28 05:22:33;;;;;;;1.47;1.37;;;14.40;99.90;;;;;;5111374;28;20647;-81
2022/10/28 05:25:02;;;;;;;1.33;1.23;;;14.40;99.90;;;;;;5111697;28;20619;-81
2022/10/28 05:27:28;;;;;;;2.90;2.50;;;14.30;99.90;;;;;;5110734;28;20607;-82
2022/10/28 05:29:55;;;;;;;1.83;1.60;;;14.40;99.90;;;;;;5103644;28;20710;-81
2022/10/28 05:32:22;;;;;;;2.13;1.80;;;14.30;99.90;;;;;;5091381;28;20673;-81
2022/10/28 05:34:49;;;;;;;1.60;1.50;;;14.30;99.90;;;;;;5108663;28;20655;-81
2022/10/28 05:37:16;;;;;;;1.60;1.50;;;14.40;99.90;;;;;;5110537;28;20711;-81
2022/10/28 05:39:42;;;;;;;1.20;1.00;;;14.30;99.90;;;;;;5109967;28;20719;-81
2022/10/28 05:42:11;;;;;;;1.37;1.27;;;14.50;99.90;;;;;;5104429;28;20692;-81
2022/10/28 05:44:38;;;;;;;1.80;1.67;;;14.40;99.90;;;;;;5090601;28;20636;-81
2022/10/28 05:47:05;;;;;;;1.80;1.07;;;14.40;99.90;;;;;;5110705;28;21237;-81
2022/10/28 05:49:32;;;;;;;2.10;1.90;;;14.40;99.90;;;;;;5110793;28;20616;-80
2022/10/28 05:51:59;;;;;;;1.60;1.50;;;14.40;99.90;;;;;;5109917;28;20726;-81
2022/10/28 05:54:26;;;;;;;2.67;1.67;;;14.40;99.90;;;;;;5110599;28;21019;-81
2022/10/28 05:56:53;;;;;;;2.50;2.10;;;14.40;99.90;;;;;;5108446;28;20639;-82
2022/10/28 05:59:21;;;;;;;2.37;2.10;;;14.30;99.90;;;;;;5110671;28;20651;-81
2022/10/28 06:01:48;;;;;;;4.47;2.23;;;;;;;;;;5109784;28;20643;-81
2022/10/28 06:04:15;;;;;;;2.73;1.80;;;14.30;99.90;;;;;;5109183;28;20719;-81
2022/10/28 06:06:42;;;;;;;1.67;1.60;;;14.40;99.90;;;;;;5109836;28;20627;-81
2022/10/28 06:09:09;;;;;;;1.47;1.23;;;;;;;;;;5109912;28;20676;-81
2022/10/28 06:11:36;;;;;;;2.10;1.37;;;14.40;99.90;;;;;;5110291;28;20604;-81
2022/10/28 06:14:03;;;;;;;5.80;3.10;;;14.50;99.90;;;;;;5110218;28;20719;-81
2022/10/28 06:16:31;;;;;;;2.53;2.10;;;14.50;99.90;;;;;;5109737;28;20831;-82
2022/10/28 06:18:58;;;;;;;2.10;1.63;;;14.50;99.90;;;;;;5110320;28;20639;-81
2022/10/28 06:21:25;;;;;;;2.67;2.30;;;14.40;99.90;;;;;;5110084;28;20810;-81
2022/10/28 06:23:52;;;;;;;1.40;1.30;;;14.50;99.90;;;;;;5109009;28;20623;-81
2022/10/28 06:26:19;;;;;;;1.27;1.17;;;14.40;99.90;;;;;;5107493;28;21203;-81
2022/10/28 06:28:48;;;;;;;0.83;0.83;;;14.40;99.90;;;;;;5109943;28;21161;-81
2022/10/28 06:31:15;;;;;;;1.50;1.40;;;14.50;99.90;;;;;;5110289;28;20630;-81
2022/10/28 06:33:43;;;;;;;3.22;2.40;;;14.50;99.90;;;;;;5109590;28;20743;-81
2022/10/28 06:36:10;;;;;;;3.87;1.37;;;14.40;99.90;;;;;;5109995;28;20202;-81
2022/10/28 06:38:37;;;;;;;2.13;1.90;;;14.50;99.90;;;;;;5108814;28;20642;-81
2022/10/28 06:41:04;;;;;;;1.23;1.13;;;;;;;;;;5109634;28;21038;-80
2022/10/28 06:43:31;;;;;;;3.10;1.83;;;14.50;99.90;;;;;;5092921;28;20652;-81
2022/10/28 06:46:01;;;;;;;2.33;1.83;;;14.50;99.90;;;;;;5101386;28;20620;-82
2022/10/28 06:48:28;;;;;;;1.50;1.40;;;14.50;99.90;;;;;;5109345;28;21050;-81
2022/10/28 06:50:56;;;;;;;2.87;1.60;;;14.60;99.90;;;;;;5109179;28;20670;-81
2022/10/28 06:53:23;;;;;;;1.03;1.03;;;14.50;99.90;;;;;;5109940;28;20831;-80
2022/10/28 06:55:54;;;;;;;2.07;1.50;;;14.60;99.90;;;;;;5109304;28;20651;-80
2022/10/28 06:58:21;;;;;;;2.50;1.60;;;14.60;99.90;;;;;;5108878;28;20727;-81
2022/10/28 07:00:48;;;;;;;2.50;1.40;;;14.70;99.90;;;;;;5108991;28;21233;-81
2022/10/28 07:03:15;;;;;;;3.43;1.13;;;14.70;99.90;;;;;;5108942;28;20723;-80
2022/10/28 07:05:42;;;;;;;4.13;1.83;;;14.70;99.90;;;;;;5108909;28;20672;-81
2022/10/28 07:08:10;;;;;;;1.80;1.23;;;14.70;99.90;;;;;;5108536;28;20705;-80
2022/10/28 07:10:37;;;;;;;1.90;1.43;;;14.80;99.90;;;;;;5109017;28;21206;-81
2022/10/28 07:13:04;;;;;;;1.40;1.30;;;14.70;99.90;;;;;;5108883;28;21166;-81
2022/10/28 07:15:31;;;;;;;2.40;1.27;;;14.80;99.90;;;;;;5108753;28;20692;-80
2022/10/28 07:17:59;;;;;;;1.83;1.40;;;14.80;99.90;;;;;;5107766;28;20624;-81
2022/10/28 07:20:28;;;;;;;1.40;1.30;;;14.80;99.90;;;;;;5109279;28;20612;-80
2022/10/28 07:22:59;;;;;;;1.60;1.13;;;14.90;99.90;;;;;;5108696;28;20660;-80
2022/10/28 07:25:29;;;;;;;1.40;1.20;;;14.90;99.90;;;;;;5107689;28;20620;-80
2022/10/28 07:27:57;;;;;;;2.50;1.83;;;15.00;99.90;;;;;;5108186;28;20714;-80
2022/10/28 07:30:24;;;;;;;4.83;1.67;;;15.00;99.90;;;;;;5108183;28;20626;-80
2022/10/28 07:32:51;;;;;;;1.87;1.77;;;15.10;99.90;;;;;;5108345;28;20618;-80
2022/10/28 07:35:18;;;;;;;1.27;1.17;;;;;;;;;;5109152;28;20631;-82
2022/10/28 07:37:45;;;;;;;1.10;1.10;;;15.10;99.90;;;;;;5108126;28;20623;-80
2022/10/28 07:40:12;;;;;;;1.97;1.73;;;15.10;99.90;;;;;;5109060;28;21237;-82
2022/10/28 07:42:41;;;;;;;1.87;1.73;;;15.20;99.90;;;;;;5098601;28;20664;-83
2022/10/28 07:45:08;;;;;;;2.80;2.27;;;15.20;99.90;;;;;;5093154;28;21015;-82
2022/10/28 07:47:35;;;;;;;3.80;1.97;;;15.30;99.90;;;;;;5107977;28;20696;-82
2022/10/28 07:50:02;;;;;;;2.40;1.90;;;15.30;99.90;;;;;;5108425;28;20661;-81
2022/10/28 07:52:29;;;;;;;2.30;1.57;;;15.30;99.90;;;;;;5108696;28;20624;-82
2022/10/28 07:54:56;;;;;;;1.37;1.27;;;15.30;99.90;;;;;;5108420;28;20640;-82
2022/10/28 07:57:28;;;;;;;3.00;1.40;;;15.30;99.90;;;;;;5107789;28;20619;-82
2022/10/28 07:59:56;;;;;;;2.73;1.30;;;15.30;99.90;;;;;;5108107;28;20727;-82
2022/10/28 08:02:25;;;;;;;1.67;1.57;;;15.40;99.90;;;;;;5107902;28;20663;-81
2022/10/28 08:04:52;;;;;;;2.17;1.30;;;15.40;99.90;;;;;;5108316;28;21056;-82
2022/10/28 08:07:20;;;;;;;1.20;1.10;;;15.50;99.90;;;;;;5107536;28;20719;-82
2022/10/28 08:09:47;;;;;;;1.67;1.50;;;15.50;99.90;;;;;;5108230;28;21089;-82
2022/10/28 08:12:15;;;;;;;1.80;1.40;;;15.70;99.90;;;;;;5107474;28;21000;-81
2022/10/28 08:14:42;;;;;;;1.53;1.27;;;15.50;99.90;;;;;;5108130;28;20627;-81
2022/10/28 08:17:10;;;;;;;3.90;1.90;;;15.50;99.90;;;;;;5105981;28;20672;-81
2022/10/28 08:19:37;;;;;;;2.47;1.90;;;15.60;99.90;;;;;;5108071;28;21161;-80
2022/10/28 08:22:04;;;;;;;2.10;1.60;;;15.60;99.90;;;;;;5108384;28;20679;-80
2022/10/28 08:24:31;;;;;;;2.47;1.77;;;15.60;99.90;;;;;;5107442;28;20612;-81
2022/10/28 08:26:58;;;;;;;1.77;1.47;;;15.70;99.90;;;;;;5106648;28;20609;-82
2022/10/28 08:29:25;;;;;;;2.33;1.80;;;15.70;99.90;;;;;;5107760;28;20620;-81
2022/10/28 08:31:51;;;;;;;4.73;1.67;;;15.70;99.90;;;;;;5108279;28;21134;-82
2022/10/28 08:34:20;;;;;;;1.37;1.00;;;15.70;99.90;;;;;;5107865;28;20612;-82
2022/10/28 08:36:47;;;;;;;1.47;1.37;;;15.70;99.90;;;;;;5107227;28;20665;-82
2022/10/28 08:39:13;;;;;;;2.93;1.30;;;15.80;99.90;;;;;;5107271;28;20626;-82
2022/10/28 08:41:47;;;;;;;2.17;1.20;;;15.90;99.90;;;;;;5105682;28;20690;-83
2022/10/28 08:44:40;;;;;;;1.27;1.00;;;15.90;99.40;;;;;;5086458;28;20608;-81
2022/10/28 08:47:19;;;;;;;2.70;1.47;;;16.00;99.40;;;;;;5065389;28;20629;-82
2022/10/28 08:49:54;;;;;;;1.43;0.90;;;16.10;99.90;;;;;;5085681;28;20677;-82
2022/10/28 08:52:28;;;;;;;1.50;1.40;;;16.10;99.90;;;;;;5086740;28;20659;-82
2022/10/28 08:55:01;;;;;;;1.47;0.90;;;16.10;99.90;;;;;;5086608;28;21173;-82
2022/10/28 08:57:36;;;;;;;2.20;1.20;;;16.10;99.90;;;;;;5087018;28;20711;-82
2022/10/28 09:00:06;;;;;;;2.03;1.07;;;16.30;99.90;;;;;;5103688;28;20619;-83
2022/10/28 09:02:50;;;;;;;1.53;1.43;;;16.40;99.90;;;;;;5107251;28;20667;-81
2022/10/28 09:05:22;;;;;;;0.87;0.87;;;16.50;99.30;;;;;;5107907;28;20664;-82
2022/10/28 09:07:49;;;;;;;1.20;1.10;;;16.60;99.50;;;;;;5107107;28;20600;-82
2022/10/28 09:10:18;;;;;;;1.33;1.23;;;16.60;99.50;;;;;;5106444;28;20608;-82
2022/10/28 09:12:53;;;;;;;2.50;1.40;;;16.70;99.20;;;;;;5106926;28;21439;-82
2022/10/28 09:15:30;;;;;;;1.20;1.10;;;16.80;98.90;;;;;;5107129;28;21181;-82
2022/10/28 09:18:03;;;;;;;1.20;1.10;;;16.90;99.00;;;;;;5106529;28;20757;-83
2022/10/28 09:20:45;;;;;;;1.17;1.03;;;16.90;99.10;;;;;;5107815;28;20619;-83
2022/10/28 09:23:22;;;;;;;1.10;1.10;;;17.00;98.80;;;;;;5106564;28;20668;-83
2022/10/28 09:25:59;;;;;;;2.53;1.53;;;17.30;98.40;;;;;;5107540;28;20604;-82
2022/10/28 09:28:40;;;;;;;2.57;1.50;;;17.10;97.90;;;;;;5106769;28;20648;-82
2022/10/28 09:31:16;;;;;;;1.93;0.90;;;17.10;97.80;;;;;;5107583;28;20600;-83
2022/10/28 09:33:51;;;;;;;3.93;1.10;;;17.30;98.10;;;;;;5107850;28;20733;-81
2022/10/28 09:36:25;;;;;;;1.00;1.00;;;17.40;97.00;;;;;;5107132;28;20654;-81
2022/10/28 09:38:56;;;;;;;1.40;1.00;;;17.70;96.50;;;;;;5109161;28;20699;-81
2022/10/28 09:41:26;;;;;;;1.30;1.00;;;17.80;96.90;;;;;;5111028;28;20626;-81
2022/10/28 09:43:57;;;;;;;1.27;1.23;;;17.70;97.60;;;;;;5110439;28;20667;-81
2022/10/28 09:46:27;;;;;;;2.50;1.10;;;17.70;98.30;;;;;;5110155;28;20612;-82
2022/10/28 09:48:59;;;;;;;0.80;0.80;;;17.50;99.90;;;;;;5111236;28;20623;-82
2022/10/28 09:51:32;;;;;;;1.90;1.50;;;17.70;98.00;;;;;;5110633;28;20620;-82
2022/10/28 09:54:01;;;;;;;1.47;1.37;;;17.80;97.20;;;;;;5111025;28;20607;-82
2022/10/28 09:56:29;;;;;;;2.07;1.60;;;17.90;97.20;;;;;;5109764;28;20646;-82
2022/10/28 09:58:59;;;;;;;1.70;1.33;;;18.10;96.80;;;;;;5110886;28;20638;-82
2022/10/28 10:01:31;;;;;;;2.00;1.07;;;18.40;96.80;;;;;;5110754;28;20655;-82
2022/10/28 10:03:58;;;;;;;1.57;1.30;;;18.60;96.30;;;;;;5111170;28;20671;-82
2022/10/28 10:06:32;;;;;;;1.77;1.03;;;18.80;95.50;;;;;;5110694;28;20719;-82
2022/10/28 10:09:00;;;;;;;2.57;1.03;;;19.10;94.60;;;;;;5110406;28;20615;-82
2022/10/28 10:11:31;;;;;;;2.43;1.80;;;19.10;94.90;;;;;;5110680;28;20672;-82
2022/10/28 10:14:03;;;;;;;1.30;1.20;;;19.00;95.90;;;;;;5111000;28;20699;-82
2022/10/28 10:16:38;;;;;;;2.50;1.23;;;19.20;94.40;;;;;;5110002;28;20616;-84
2022/10/28 10:19:09;;;;;;;0.90;0.90;;;19.20;95.10;;;;;;5110371;28;21192;-83
2022/10/28 10:21:46;;;;;;;2.50;1.23;;;19.20;95.20;;;;;;5110284;28;20607;-82
2022/10/28 10:24:29;;;;;;;2.87;1.40;;;19.20;95.80;;;;;;5110241;28;20651;-82
2022/10/28 10:26:57;;;;;;;1.03;1.03;;;19.30;96.60;;;;;;5109686;28;21193;-81
2022/10/28 10:29:25;;;;;;;4.33;1.67;;;19.30;96.00;;;;;;5110596;28;20666;-83
2022/10/28 10:32:12;;;;;;;4.73;1.20;;;19.40;96.10;;;;;;5109437;28;20614;-82
2022/10/28 10:34:44;;;;;;;1.20;1.10;;;19.80;94.40;;;;;;5110254;28;20670;-82
2022/10/28 10:37:19;;;;;;;3.00;1.03;;;19.60;95.00;;;;;;5109567;28;20607;-82
2022/10/28 10:40:00;;;;;;;1.20;1.00;;;19.50;96.50;;;;;;5108197;28;20634;-82
2022/10/28 10:42:27;;;;;;;1.90;1.70;;;19.40;96.80;;;;;;5109736;28;20679;-82
2022/10/28 10:45:01;;;;;;;1.87;1.70;;;19.50;96.50;;;;;;5110261;28;20607;-83
2022/10/28 10:47:28;;;;;;;1.40;1.30;;;19.50;96.80;;;;;;5109958;28;20755;-83
2022/10/28 10:50:24;;;;;;;1.43;1.33;;;19.70;95.50;;;;;;5110144;28;20672;-82
2022/10/28 10:52:56;;;;;;;1.10;1.00;;;19.80;95.10;;;;;;5109761;28;20710;-82
2022/10/28 10:55:34;;;;;;;3.43;1.10;;;19.70;95.70;;;;;;5109402;28;20751;-82
2022/10/28 10:58:02;;;;;;;1.47;1.20;;;19.70;95.60;;;;;;5109198;28;20638;-82
2022/10/28 11:00:33;;;;;;;2.30;1.17;;;20.00;94.20;;;;;;5109448;28;21219;-82
2022/10/28 11:03:01;;;;;;;1.97;1.10;;;19.80;94.70;;;;;;5108625;28;21025;-82
2022/10/28 11:05:28;;;;;;;1.50;1.17;;;19.90;94.30;;;;;;5109678;28;20611;-81
2022/10/28 11:08:03;;;;;;;0.93;0.90;;;19.90;93.90;;;;;;5107814;28;20697;-82
2022/10/28 11:10:31;;;;;;;0.97;0.87;;;19.90;94.00;;;;;;5109207;28;20973;-82
2022/10/28 11:13:01;;;;;;;1.17;0.80;;;19.80;94.50;;;;;;5109880;28;20627;-82
2022/10/28 11:15:30;;;;;;;2.43;0.93;;;19.90;94.10;;;;;;5109204;28;20607;-82
2022/10/28 11:18:02;;;;;;;2.40;1.03;;;19.90;94.20;;;;;;5108084;28;20634;-81
2022/10/28 11:20:42;;;;;;;3.10;1.20;;;19.90;93.20;;;;;;5109490;28;20603;-81
2022/10/28 11:23:27;;;;;;;3.00;1.27;;;19.90;93.80;;;;;;5103207;28;20662;-82
2022/10/28 11:25:58;;;;;;;2.23;1.30;;;20.00;93.10;;;;;;5088401;28;20631;-82
2022/10/28 11:28:43;;;;;;;1.10;0.90;;;19.90;94.30;;;;;;5087813;28;21174;-81
2022/10/28 11:31:32;;;;;;;2.73;1.00;;;19.90;94.60;;;;;;5088940;28;20697;-82
2022/10/28 11:34:15;;;;;;;1.40;1.30;;;19.90;94.70;;;;;;5100871;28;21324;-81
2022/10/28 11:36:53;;;;;;;1.40;0.87;;;20.00;94.10;;;;;;5108080;28;20632;-82
2022/10/28 11:39:26;;;;;;;1.13;0.87;;;20.00;93.40;;;;;;5108820;28;21221;-82
2022/10/28 11:42:06;;;;;;;0.90;0.90;;;20.10;92.60;;;;;;5107911;28;21184;-82
2022/10/28 11:44:45;;;;;;;2.13;1.07;;;20.20;93.20;;;;;;5108127;28;20663;-83
2022/10/28 11:47:37;;;;;;;1.00;1.00;;;20.30;94.50;;;;;;5108387;28;20651;-81
2022/10/28 11:50:26;;;;;;;1.17;1.07;;;20.50;94.20;;;;;;5108830;28;20704;-82
2022/10/28 11:53:20;;;;;;;2.83;1.30;;;20.50;94.80;;;;;;5108383;28;20607;-83
2022/10/28 11:55:54;;;;;;;1.57;0.80;;;20.30;95.00;;;;;;5108465;28;21244;-82
2022/10/28 11:58:32;;;;;;;1.00;0.87;;;20.50;93.60;;;;;;5106975;28;20655;-82
2022/10/28 12:01:14;;;;;;;2.87;0.87;;;20.50;93.90;;;;;;5108726;28;20656;-82
2022/10/28 12:04:09;;;;;;;2.17;1.00;;;20.40;94.20;;;;;;5107739;28;21177;-82
2022/10/28 12:06:59;;;;;;;1.17;1.07;;;20.60;93.00;;;;;;5107742;28;20672;-83
2022/10/28 12:09:36;;;;;;;0.80;0.70;;;20.60;93.10;;;;;;5108682;28;20623;-82
2022/10/28 12:12:15;;;;;;;2.67;1.00;;;20.50;93.50;;;;;;5108238;28;20746;-82
2022/10/28 12:14:50;;;;;;;1.20;1.10;;;20.60;93.80;;;;;;5108856;28;20622;-82
2022/10/28 12:17:23;;;;;;;3.50;1.57;;;20.60;94.00;;;;;;5107961;28;20619;-82
2022/10/28 12:19:57;;;;;;;1.67;1.27;;;20.60;94.50;;;;;;5108574;28;20702;-82
2022/10/28 12:22:30;;;;;;;1.63;1.53;;;20.70;94.00;;;;;;5108091;28;20735;-81
2022/10/28 12:24:58;;;;;;;1.67;1.30;;;20.70;94.70;;;;;;5087836;28;20617;-82
2022/10/28 12:27:30;;;;;;;5.13;1.50;;;20.70;95.20;;;;;;5087270;28;20617;-82
2022/10/28 12:30:03;;;;;;;3.00;1.20;;;20.70;94.90;;;;;;5088178;28;20977;-82
2022/10/28 12:32:33;;;;;;;1.73;1.40;;;20.70;94.30;;;;;;5087062;28;20648;-82
2022/10/28 12:35:04;;;;;;;1.50;1.30;;;20.80;94.10;;;;;;5108632;28;20955;-81
2022/10/28 12:37:38;;;;;;;2.50;1.73;;;20.80;94.40;;;;;;5107385;28;21180;-82
2022/10/28 12:40:12;;;;;;;1.47;1.10;;;20.80;94.90;;;;;;5107742;28;21491;-82
2022/10/28 12:42:45;;;;;;;2.40;1.50;;;20.80;95.10;;;;;;5107854;28;21002;-82
2022/10/28 12:45:15;;;;;;;1.40;1.30;;;20.90;94.20;;;;;;5107381;28;20695;-82
2022/10/28 12:47:48;;;;;;;2.70;1.30;;;21.00;94.50;;;;;;5106469;28;20600;-82
2022/10/28 12:50:24;;;;;;;0.90;0.80;;;21.00;93.80;;;;;;5107384;28;20638;-83
2022/10/28 12:52:57;;;;;;;1.00;0.80;;;21.10;93.40;;;;;;5108613;28;20627;-82
2022/10/28 12:55:31;;;;;;;4.13;1.33;;;21.10;93.40;;;;;;5107954;28;20726;-81
2022/10/28 12:58:05;;;;;;;3.00;1.13;;;21.20;93.30;;;;;;5108227;28;20729;-81
2022/10/28 13:00:36;;;;;;;2.57;1.50;;;21.20;93.00;;;;;;5108696;28;20627;-82
2022/10/28 13:03:06;;;;;;;1.33;1.23;;;21.40;92.70;;;;;;5108777;28;20759;-81
2022/10/28 13:05:39;;;;;;;1.30;1.20;;;21.40;92.90;;;;;;5108330;28;20645;-82
2022/10/28 13:08:32;;;;;;;0.70;0.70;;;21.40;92.30;;;;;;5107130;28;20615;-82